createdAt,value
2023-01-15T00:04:33.923Z,62.53
2023-01-15T00:09:40.863Z,62.48
2023-01-15T00:14:46.230Z,62.39
2023-01-15T00:19:50.013Z,62.56
2023-01-15T00:25:12.274Z,62.19
2023-01-15T00:30:20.554Z,62.21
2023-01-15T00:35:25.463Z,62.44
2023-01-15T00:40:31.829Z,62.75
2023-01-15T00:45:37.235Z,63.35
2023-01-15T00:50:41.238Z,63.88
2023-01-15T00:55:45.096Z,64.51
2023-01-15T01:01:00.070Z,65.44
2023-01-15T01:06:13.326Z,66.09
2023-01-15T01:11:21.136Z,66.77
2023-01-15T01:16:43.645Z,67.57
2023-01-15T01:21:48.817Z,68.07
2023-01-15T01:26:54.784Z,68.57
2023-01-15T01:31:58.815Z,69.02
2023-01-15T01:37:11.196Z,69.40
2023-01-15T01:42:18.879Z,69.84
2023-01-15T01:47:28.306Z,70.35
2023-01-15T01:53:07.354Z,70.23
2023-01-15T01:58:12.773Z,70.59
2023-01-15T02:03:18.436Z,70.63
2023-01-15T02:08:23.219Z,70.89
2023-01-15T02:13:38.910Z,71.36
2023-01-15T02:19:26.019Z,71.47
2023-01-15T02:24:35.236Z,71.71
2023-01-15T02:29:46.042Z,71.81
2023-01-15T02:35:00.668Z,72.20
2023-01-15T02:40:07.956Z,72.86
2023-01-15T02:45:13.823Z,73.21
2023-01-15T02:50:23.692Z,73.49
2023-01-15T02:55:57.853Z,74.07
2023-01-15T03:01:35.769Z,74.62
2023-01-15T03:06:46.592Z,74.97
2023-01-15T03:12:19.680Z,75.25
2023-01-15T03:17:36.193Z,75.55
2023-01-15T03:22:43.498Z,75.86
2023-01-15T03:27:48.151Z,76.10
2023-01-15T03:32:54.826Z,76.30
2023-01-15T03:38:10.632Z,76.46
2023-01-15T03:43:34.967Z,77.02
2023-01-15T03:48:44.898Z,77.13
2023-01-15T03:53:57.450Z,77.51
2023-01-15T03:59:14.084Z,77.75
2023-01-15T04:04:31.762Z,78.34
2023-01-15T04:09:39.871Z,79.00
2023-01-15T04:14:46.135Z,79.88
2023-01-15T04:19:54.701Z,80.40
2023-01-15T04:24:59.362Z,81.33
2023-01-15T04:30:03.319Z,82.45
2023-01-15T04:35:07.290Z,83.15
2023-01-15T04:40:31.928Z,83.53
2023-01-15T04:45:37.103Z,84.61
2023-01-15T04:50:40.808Z,85.02
2023-01-15T04:55:44.520Z,86.22
2023-01-15T05:00:48.221Z,86.69
2023-01-15T05:05:51.999Z,86.83
2023-01-15T05:10:55.761Z,87.02
2023-01-15T05:16:24.993Z,87.04
2023-01-15T05:21:34.447Z,86.93
2023-01-15T05:26:38.252Z,86.98
2023-01-15T05:31:46.253Z,86.77
2023-01-15T05:36:51.666Z,86.53
2023-01-15T05:41:55.483Z,86.42
2023-01-15T05:47:07.949Z,86.36
2023-01-15T05:52:11.783Z,86.30
2023-01-15T05:57:15.503Z,86.81
2023-01-15T06:02:19.205Z,86.91
2023-01-15T06:07:22.965Z,87.35
2023-01-15T06:12:26.565Z,87.82
2023-01-15T06:17:30.301Z,88.05
2023-01-15T06:22:34.112Z,88.52
2023-01-15T06:27:37.843Z,88.82
2023-01-15T06:32:41.625Z,89.01
2023-01-15T06:37:45.324Z,89.23
2023-01-15T06:43:08.311Z,89.29
2023-01-15T06:48:16.737Z,89.57
2023-01-15T06:53:22.897Z,89.83
2023-01-15T06:58:26.637Z,89.88
2023-01-15T07:03:30.464Z,89.89
2023-01-15T07:08:34.708Z,89.94
2023-01-15T07:13:38.395Z,90.00
2023-01-15T07:18:41.993Z,90.13
2023-01-15T07:23:45.600Z,90.21
2023-01-15T07:28:49.215Z,90.17
2023-01-15T07:33:52.975Z,89.96
2023-01-15T07:38:56.806Z,89.63
2023-01-15T07:44:19.189Z,89.08
2023-01-15T07:49:41.538Z,88.47
2023-01-15T07:54:46.262Z,87.53
2023-01-15T07:59:51.413Z,86.56
2023-01-15T08:04:55.169Z,85.56
2023-01-15T08:09:58.986Z,84.66
2023-01-15T08:15:15.085Z,84.20
2023-01-15T08:20:21.814Z,83.93
2023-01-15T08:25:26.176Z,83.30
2023-01-15T08:30:30.053Z,82.67
2023-01-15T08:35:34.838Z,81.91
2023-01-15T08:40:59.100Z,81.92
2023-01-15T08:46:05.895Z,81.42
2023-01-15T08:51:14.001Z,81.73
2023-01-15T08:56:19.724Z,81.66
2023-01-15T09:01:23.600Z,80.98
2023-01-15T09:06:27.600Z,80.45
2023-01-15T09:25:25.799Z,79.24
2023-01-15T09:30:30.187Z,79.03
2023-01-15T09:35:33.853Z,79.25
2023-01-15T09:40:44.303Z,78.72
2023-01-15T09:45:53.732Z,78.42
2023-01-15T09:51:25.659Z,78.49
2023-01-15T09:56:35.563Z,78.22
2023-01-15T10:01:43.142Z,78.43
2023-01-15T10:07:06.579Z,77.78
2023-01-15T10:12:35.796Z,77.85
2023-01-15T10:17:43.327Z,76.82
2023-01-15T10:23:07.467Z,76.83
2023-01-15T10:28:42.512Z,76.15
2023-01-15T10:34:11.028Z,75.80
2023-01-15T10:39:30.928Z,75.80
2023-01-15T10:44:49.972Z,75.93
2023-01-15T10:49:54.580Z,75.98
2023-01-15T10:55:15.246Z,75.83
2023-01-15T11:00:21.309Z,74.54
2023-01-15T11:05:26.201Z,74.72
2023-01-15T11:10:29.937Z,74.86
2023-01-15T11:15:52.484Z,74.76
2023-01-15T11:20:56.546Z,74.89
2023-01-15T11:26:01.378Z,74.83
2023-01-15T11:31:05.165Z,74.85
2023-01-15T11:36:23.078Z,75.14
2023-01-15T11:42:05.612Z,75.36
2023-01-15T11:47:31.012Z,75.05
2023-01-15T11:52:48.238Z,74.85
2023-01-15T11:57:53.106Z,74.59
2023-01-15T12:03:02.074Z,74.89
2023-01-15T12:08:22.781Z,75.13
2023-01-15T12:14:34.707Z,75.31
2023-01-15T12:20:19.438Z,75.37
2023-01-15T12:25:56.699Z,75.75
2023-01-15T12:31:11.045Z,75.93
2023-01-15T12:36:34.456Z,76.10
2023-01-15T12:42:04.147Z,76.64
2023-01-15T12:47:11.300Z,77.89
2023-01-15T12:52:23.280Z,79.08
2023-01-15T12:57:38.312Z,80.82
2023-01-15T13:02:56.571Z,82.24
2023-01-15T13:08:30.860Z,83.09
2023-01-15T13:13:37.791Z,84.39
2023-01-15T13:19:17.127Z,85.76
2023-01-15T13:24:59.418Z,87.15
2023-01-15T13:30:29.251Z,88.29
2023-01-15T13:35:48.772Z,89.60
2023-01-15T13:40:54.820Z,89.27
2023-01-15T13:45:59.574Z,90.14
2023-01-15T13:51:06.453Z,89.85
2023-01-15T13:56:30.388Z,89.69
2023-01-15T14:01:37.665Z,89.45
2023-01-15T14:06:46.288Z,89.99
2023-01-15T14:12:17.009Z,90.19
2023-01-15T14:17:31.924Z,90.22
2023-01-15T14:23:03.920Z,90.34
2023-01-15T14:28:46.715Z,90.47
2023-01-15T14:34:14.887Z,90.65
2023-01-15T14:39:42.564Z,90.95
2023-01-15T14:44:47.282Z,91.00
2023-01-15T14:50:05.501Z,89.29
2023-01-15T14:55:11.090Z,88.98
2023-01-15T15:00:19.099Z,88.62
2023-01-15T15:05:25.964Z,88.70
2023-01-15T15:10:38.389Z,88.41
2023-01-15T15:15:42.452Z,88.45
2023-01-15T15:20:56.454Z,88.59
2023-01-15T15:26:07.991Z,88.96
2023-01-15T15:31:11.828Z,89.46
2023-01-15T15:36:17.113Z,89.30
2023-01-15T15:41:44.083Z,88.55
2023-01-15T15:47:10.600Z,88.28
2023-01-15T15:52:26.791Z,88.29
2023-01-15T15:57:34.078Z,88.67
2023-01-15T16:02:44.975Z,89.03
2023-01-15T16:07:49.552Z,88.78
2023-01-15T16:13:00.327Z,88.69
2023-01-15T16:18:05.074Z,88.94
2023-01-15T16:23:24.670Z,88.59
2023-01-15T16:28:40.980Z,88.89
2023-01-15T16:33:59.235Z,89.26
2023-01-15T16:39:04.192Z,89.68
2023-01-15T16:44:44.809Z,89.47
2023-01-15T16:49:54.406Z,89.42
2023-01-15T16:55:02.142Z,90.05
2023-01-15T17:00:09.141Z,89.75
2023-01-15T17:05:32.394Z,89.34
2023-01-15T17:10:37.637Z,89.82
2023-01-15T17:15:43.756Z,90.26
2023-01-15T17:20:48.938Z,90.39
2023-01-15T17:25:56.808Z,90.18
2023-01-15T17:31:09.036Z,90.42
2023-01-15T17:36:16.694Z,90.23
2023-01-15T17:41:26.401Z,90.53
2023-01-15T17:46:34.817Z,90.85
2023-01-15T17:51:44.540Z,90.69
2023-01-15T17:57:29.932Z,90.84
2023-01-15T18:02:55.584Z,90.94
2023-01-15T18:08:06.190Z,91.03
2023-01-15T18:13:11.465Z,90.85
2023-01-15T18:18:17.815Z,90.59
2023-01-15T18:23:23.439Z,90.83
2023-01-15T18:28:32.518Z,90.72
2023-01-15T18:33:44.673Z,90.89
2023-01-15T18:38:50.545Z,91.32
2023-01-15T18:44:19.270Z,91.35
2023-01-15T18:49:24.358Z,91.59
2023-01-15T18:54:30.352Z,91.63
2023-01-15T18:59:36.032Z,91.80
2023-01-15T19:04:42.230Z,92.05
2023-01-15T19:09:50.715Z,91.89
2023-01-15T19:15:14.670Z,91.69
2023-01-15T19:20:21.054Z,91.56
2023-01-15T19:25:33.010Z,91.74
2023-01-15T19:30:40.762Z,91.50
2023-01-15T19:35:46.117Z,91.39
2023-01-15T19:40:57.837Z,91.17
2023-01-15T19:46:22.687Z,91.04
2023-01-15T19:51:49.332Z,91.05
2023-01-15T19:56:57.232Z,91.04
2023-01-15T20:02:07.114Z,91.07
2023-01-15T20:07:12.726Z,90.99
2023-01-15T20:12:41.122Z,90.72
2023-01-15T20:17:49.543Z,90.75
2023-01-15T20:22:59.963Z,90.05
2023-01-15T20:28:05.617Z,89.26
2023-01-15T20:33:11.775Z,88.90
2023-01-15T20:38:24.920Z,88.75
2023-01-15T20:43:51.948Z,87.95
2023-01-15T20:49:16.643Z,87.10
2023-01-15T20:54:23.562Z,86.20
2023-01-15T20:59:33.148Z,85.56
2023-01-15T21:04:43.223Z,85.15
2023-01-15T21:09:49.858Z,85.02
2023-01-15T21:14:55.646Z,84.23
2023-01-15T21:20:01.367Z,84.31
2023-01-15T21:25:07.542Z,84.30
2023-01-15T21:30:12.131Z,84.45
2023-01-15T21:35:16.112Z,84.51
2023-01-15T21:40:19.910Z,84.65
2023-01-15T21:45:24.397Z,84.84
2023-01-15T21:50:28.260Z,85.14
2023-01-15T21:55:32.191Z,85.50
2023-01-15T22:00:35.890Z,85.90
2023-01-15T22:05:39.449Z,86.16
2023-01-15T22:10:44.911Z,86.50
2023-01-15T22:15:54.689Z,86.69
2023-01-15T22:21:00.707Z,86.58
2023-01-15T22:26:05.607Z,86.56
2023-01-15T22:31:09.742Z,86.57
2023-01-15T22:36:15.053Z,86.19
2023-01-15T22:41:38.801Z,86.12
2023-01-15T22:46:42.611Z,85.95
2023-01-15T22:51:46.270Z,85.87
2023-01-15T22:56:50.359Z,85.51
2023-01-15T23:09:03.911Z,85.41
2023-01-15T23:14:08.901Z,85.10
2023-01-15T23:19:12.707Z,85.08
2023-01-15T23:24:16.350Z,85.04
2023-01-15T23:29:21.012Z,85.01
2023-01-15T23:34:25.605Z,84.98
2023-01-15T23:39:29.721Z,84.99
2023-01-15T23:44:52.300Z,84.90
2023-01-15T23:49:56.103Z,84.88
2023-01-15T23:54:59.852Z,84.94
